Time;durP1;ratioP1;P1;durP2;ratioP2;P2;SDS_P1;SDS_P2;PMS_P1;PMS_P2;Temp;Humidity;BMP_temperature;BMP_pressure;BME280_temperature;BME280_humidity;BME280_pressure;Samples;Min_cycle;Max_cycle;Signal;HPM_P1;HPM_P2
2021/06/20 00:00:29;;;;;;;6.03;1.80;;;22.50;70.20;;;;;;5029619;28;20025;-71
2021/06/20 00:02:56;;;;;;;4.47;1.65;;;22.50;70.20;;;;;;5028260;28;20053;-72
2021/06/20 00:05:31;;;;;;;8.82;1.90;;;22.50;70.20;;;;;;5029486;28;20542;-71
2021/06/20 00:08:00;;;;;;;7.43;1.60;;;22.40;70.50;;;;;;5029453;28;20034;-72
2021/06/20 00:10:28;;;;;;;5.07;1.90;;;22.40;70.10;;;;;;5029583;28;20025;-71
2021/06/20 00:12:54;;;;;;;3.75;1.73;;;22.40;69.50;;;;;;5029434;28;20075;-71
2021/06/20 00:15:21;;;;;;;3.40;1.48;;;22.50;70.00;;;;;;5029098;28;20402;-70
2021/06/20 00:17:47;;;;;;;3.45;1.75;;;22.40;69.40;;;;;;5029474;28;20053;-71
2021/06/20 00:20:16;;;;;;;5.45;1.70;;;22.40;69.20;;;;;;5029401;28;20870;-70
2021/06/20 00:22:43;;;;;;;4.43;1.80;;;22.40;69.10;;;;;;5029157;28;20029;-69
2021/06/20 00:25:09;;;;;;;6.25;1.98;;;22.40;68.30;;;;;;5029361;28;20021;-70
2021/06/20 00:27:35;;;;;;;7.43;1.42;;;22.50;68.20;;;;;;5029211;28;20036;-71
2021/06/20 00:30:04;;;;;;;5.13;2.33;;;22.40;68.30;;;;;;5029175;28;20033;-71
2021/06/20 00:32:29;;;;;;;3.58;2.35;;;22.40;67.70;;;;;;5029244;28;20045;-73
2021/06/20 00:34:55;;;;;;;2.50;1.50;;;22.40;67.90;;;;;;5029086;28;20033;-72
2021/06/20 00:37:21;;;;;;;4.07;1.73;;;22.40;67.90;;;;;;5028750;28;20119;-72
2021/06/20 00:39:46;;;;;;;2.60;1.30;;;22.40;68.00;;;;;;5028699;28;20034;-72
2021/06/20 00:42:12;;;;;;;3.45;1.60;;;22.50;67.30;;;;;;5027613;28;20037;-72
2021/06/20 00:44:49;;;;;;;3.10;1.70;;;22.50;67.90;;;;;;5028729;28;20084;-71
2021/06/20 00:47:17;;;;;;;5.05;1.67;;;22.40;68.20;;;;;;5028880;28;20114;-72
2021/06/20 00:49:43;;;;;;;2.55;1.20;;;22.40;68.50;;;;;;5028723;28;20104;-72
2021/06/20 00:52:09;;;;;;;6.38;1.60;;;22.30;69.00;;;;;;5028676;28;20056;-71
2021/06/20 00:54:35;;;;;;;4.03;2.25;;;22.30;69.40;;;;;;5028814;28;20069;-72
2021/06/20 00:57:01;;;;;;;17.55;2.25;;;22.20;69.60;;;;;;5028776;28;20041;-72
2021/06/20 00:59:28;;;;;;;5.82;1.77;;;22.10;70.00;;;;;;5028801;28;20029;-72
2021/06/20 01:01:53;;;;;;;3.25;1.73;;;22.10;70.10;;;;;;5028569;28;20120;-71
2021/06/20 01:04:19;;;;;;;4.95;1.52;;;22.00;70.20;;;;;;5028675;28;20143;-71
2021/06/20 01:06:45;;;;;;;3.67;1.48;;;22.00;70.10;;;;;;5028549;28;20116;-71
2021/06/20 01:09:10;;;;;;;2.08;1.23;;;21.90;70.40;;;;;;5028615;28;20029;-72
2021/06/20 01:11:37;;;;;;;6.38;1.60;;;21.90;70.70;;;;;;5028451;28;20026;-71
2021/06/20 01:14:03;;;;;;;7.13;2.10;;;21.90;71.00;;;;;;5028268;28;20112;-71
2021/06/20 01:16:30;;;;;;;2.00;1.27;;;21.80;71.10;;;;;;5028570;28;20041;-70
2021/06/20 01:18:56;;;;;;;5.45;1.70;;;21.70;71.50;;;;;;5028527;28;20595;-71
2021/06/20 01:21:23;;;;;;;4.20;1.63;;;21.70;72.00;;;;;;5028279;28;20036;-71
2021/06/20 01:23:48;;;;;;;3.63;1.40;;;21.60;72.10;;;;;;5028368;28;20021;-72
2021/06/20 01:26:14;;;;;;;9.68;1.67;;;21.60;72.20;;;;;;5028488;28;20104;-72
2021/06/20 01:28:51;;;;;;;3.35;1.40;;;21.50;72.20;;;;;;5028355;28;20494;-72
2021/06/20 01:31:18;;;;;;;2.85;1.63;;;21.50;73.40;;;;;;5028284;28;20486;-71
2021/06/20 01:33:44;;;;;;;3.65;2.20;;;21.40;75.20;;;;;;5028154;28;20029;-71
2021/06/20 01:36:12;;;;;;;3.28;1.60;;;21.30;75.90;;;;;;5028254;28;20041;-69
2021/06/20 01:38:39;;;;;;;2.80;1.55;;;21.20;76.70;;;;;;5028101;28;20133;-68
2021/06/20 01:41:06;;;;;;;5.10;1.60;;;21.10;76.10;;;;;;5027002;28;20565;-68
2021/06/20 01:43:31;;;;;;;3.72;2.05;;;21.00;76.50;;;;;;5027871;28;20029;-70
2021/06/20 01:45:57;;;;;;;6.32;1.42;;;20.90;76.00;;;;;;5027062;28;20033;-70
2021/06/20 01:48:23;;;;;;;2.58;1.60;;;21.00;75.50;;;;;;5026813;28;20022;-69
2021/06/20 01:50:48;;;;;;;3.38;1.42;;;21.00;75.20;;;;;;5027864;28;20033;-68
2021/06/20 01:53:16;;;;;;;2.97;1.35;;;21.00;75.00;;;;;;5032035;28;20057;-68
2021/06/20 01:55:45;;;;;;;6.18;1.80;;;21.00;75.00;;;;;;5032080;28;20045;-68
2021/06/20 01:58:13;;;;;;;3.33;1.60;;;21.10;75.10;;;;;;5032104;28;20774;-70
2021/06/20 02:00:44;;;;;;;4.90;1.77;;;21.10;75.30;;;;;;5030530;28;20065;-67
2021/06/20 02:03:23;;;;;;;4.32;1.35;;;21.10;75.10;;;;;;5031886;28;20497;-69
2021/06/20 02:05:49;;;;;;;4.30;1.30;;;21.10;75.10;;;;;;5031882;28;20041;-68
2021/06/20 02:08:18;;;;;;;4.90;1.60;;;21.10;75.00;;;;;;5031924;28;20501;-67
2021/06/20 02:10:52;;;;;;;5.57;1.33;;;21.20;75.20;;;;;;5031762;28;20030;-68
2021/06/20 02:13:20;;;;;;;3.40;1.40;;;21.10;75.70;;;;;;5031676;28;20086;-68
2021/06/20 02:15:45;;;;;;;2.03;1.13;;;21.00;76.10;;;;;;5031717;28;20033;-69
2021/06/20 02:18:12;;;;;;;2.15;1.30;;;21.00;76.40;;;;;;5030319;28;20029;-69
2021/06/20 02:20:39;;;;;;;3.15;1.23;;;21.00;76.40;;;;;;5031619;28;20034;-69
2021/06/20 02:23:05;;;;;;;4.72;1.30;;;20.90;76.30;;;;;;5031488;28;20202;-69
2021/06/20 02:25:32;;;;;;;4.45;1.30;;;20.90;76.50;;;;;;5031411;28;20033;-69
2021/06/20 02:27:57;;;;;;;4.60;1.20;;;20.90;76.80;;;;;;5031493;28;20399;-69
2021/06/20 02:30:23;;;;;;;2.25;1.35;;;20.90;77.10;;;;;;5031451;28;20084;-68
2021/06/20 02:32:51;;;;;;;2.33;1.27;;;20.90;77.40;;;;;;5031353;28;20099;-69
2021/06/20 02:35:17;;;;;;;2.13;1.48;;;20.80;77.60;;;;;;5031196;28;20040;-70
2021/06/20 02:37:45;;;;;;;6.38;1.40;;;20.80;77.70;;;;;;5031126;28;20053;-69
2021/06/20 02:40:11;;;;;;;4.97;1.00;;;20.80;77.40;;;;;;5031233;28;20087;-68
2021/06/20 02:42:38;;;;;;;2.92;1.42;;;20.80;77.20;;;;;;5031027;28;20617;-69
2021/06/20 02:45:06;;;;;;;4.25;1.17;;;20.70;77.00;;;;;;5031337;28;20063;-69
2021/06/20 02:47:32;;;;;;;2.50;1.20;;;20.70;77.20;;;;;;5031279;28;20069;-68
2021/06/20 02:49:58;;;;;;;2.40;1.20;;;20.70;77.50;;;;;;5031134;28;20026;-69
2021/06/20 02:52:24;;;;;;;3.22;1.15;;;20.70;77.80;;;;;;5031055;28;20457;-70
2021/06/20 02:54:49;;;;;;;2.78;1.30;;;20.60;77.90;;;;;;5030844;28;20037;-68
2021/06/20 02:57:23;;;;;;;5.85;1.10;;;20.60;78.00;;;;;;5029843;28;20105;-69
2021/06/20 02:59:50;;;;;;;4.38;1.35;;;20.60;78.20;;;;;;5029627;28;20096;-68
2021/06/20 03:02:16;;;;;;;3.28;1.25;;;20.60;78.40;;;;;;5030391;28;20029;-68
2021/06/20 03:04:43;;;;;;;9.50;1.38;;;20.60;78.60;;;;;;5030705;28;20117;-68
2021/06/20 03:07:08;;;;;;;3.75;1.42;;;20.60;78.60;;;;;;5029375;28;20017;-69
2021/06/20 03:09:35;;;;;;;4.55;1.63;;;20.60;78.80;;;;;;5030780;28;20040;-68
2021/06/20 03:12:06;;;;;;;4.15;1.70;;;20.60;78.90;;;;;;5030515;28;20055;-68
2021/06/20 03:14:33;;;;;;;4.10;1.55;;;20.60;79.10;;;;;;5030457;28;20076;-68
2021/06/20 03:17:02;;;;;;;3.55;1.25;;;20.60;79.20;;;;;;5030589;28;20041;-68
2021/06/20 03:19:28;;;;;;;3.35;1.80;;;20.60;79.20;;;;;;5030259;28;20018;-68
2021/06/20 03:21:59;;;;;;;3.28;1.25;;;20.60;79.20;;;;;;5029980;28;20060;-70
2021/06/20 03:24:26;;;;;;;2.38;1.48;;;20.70;79.10;;;;;;5028143;28;20470;-67
2021/06/20 03:26:51;;;;;;;2.22;1.30;;;20.70;78.80;;;;;;5028827;28;20124;-69
2021/06/20 03:29:17;;;;;;;3.25;1.40;;;20.80;78.50;;;;;;5028732;28;20105;-68
2021/06/20 03:31:42;;;;;;;2.78;1.48;;;20.80;78.30;;;;;;5027760;28;20505;-69
2021/06/20 03:34:08;;;;;;;2.47;1.60;;;20.90;78.30;;;;;;5027130;28;20470;-68
2021/06/20 03:36:34;;;;;;;2.45;1.45;;;20.90;78.20;;;;;;5027993;28;20056;-69
2021/06/20 03:39:00;;;;;;;1.98;1.17;;;21.00;78.10;;;;;;5027528;28;20052;-69
2021/06/20 03:41:25;;;;;;;3.22;1.60;;;21.10;78.20;;;;;;5029962;28;20391;-67
2021/06/20 03:43:51;;;;;;;3.03;1.15;;;21.10;78.20;;;;;;5029702;28;20025;-68
2021/06/20 03:46:18;;;;;;;3.60;1.52;;;21.10;78.20;;;;;;5028687;28;20108;-68
2021/06/20 03:48:45;;;;;;;3.00;1.55;;;21.30;78.20;;;;;;5029699;28;20037;-68
2021/06/20 03:51:11;;;;;;;1.90;1.50;;;21.40;78.20;;;;;;5028473;28;20033;-68
2021/06/20 03:53:37;;;;;;;2.40;1.55;;;21.40;78.10;;;;;;5029559;28;20029;-68
2021/06/20 03:56:02;;;;;;;9.20;1.75;;;21.60;78.00;;;;;;5028221;28;20037;-68
2021/06/20 03:58:28;;;;;;;3.13;1.75;;;21.70;77.60;;;;;;5029640;28;20029;-68
2021/06/20 04:00:54;;;;;;;3.72;1.77;;;21.90;77.10;;;;;;5029503;28;20061;-69
2021/06/20 04:03:20;;;;;;;2.70;1.67;;;22.20;76.60;;;;;;5028470;28;20026;-69
2021/06/20 04:05:45;;;;;;;3.35;1.75;;;22.50;75.90;;;;;;5028707;28;20041;-70
2021/06/20 04:08:11;;;;;;;3.08;2.00;;;22.80;74.80;;;;;;5028680;28;20546;-69
2021/06/20 04:10:37;;;;;;;3.50;2.15;;;23.20;73.50;;;;;;5029022;28;20604;-68
2021/06/20 04:13:03;;;;;;;4.25;2.00;;;23.50;71.80;;;;;;5027505;28;20032;-68
2021/06/20 04:15:29;;;;;;;3.33;2.20;;;23.80;70.60;;;;;;5028939;28;20040;-69
2021/06/20 04:17:55;;;;;;;4.32;2.22;;;24.00;69.60;;;;;;5028105;28;20034;-68
2021/06/20 04:20:21;;;;;;;14.45;2.38;;;24.40;68.30;;;;;;5029287;28;20112;-69
2021/06/20 04:22:46;;;;;;;5.43;1.75;;;24.50;67.40;;;;;;5029194;28;20064;-68
2021/06/20 04:25:15;;;;;;;2.63;1.60;;;24.70;66.80;;;;;;5029159;28;20061;-68
2021/06/20 04:27:43;;;;;;;3.92;1.85;;;24.90;66.20;;;;;;5028897;28;20026;-68
2021/06/20 04:30:13;;;;;;;4.22;2.08;;;24.90;65.70;;;;;;5027935;28;20033;-68
2021/06/20 04:32:40;;;;;;;4.00;2.25;;;25.00;65.30;;;;;;5028944;28;20025;-68
2021/06/20 04:35:06;;;;;;;2.92;1.60;;;25.10;65.20;;;;;;5028907;28;20037;-69
2021/06/20 04:37:32;;;;;;;3.92;2.42;;;25.10;65.20;;;;;;5028718;28;20057;-69
2021/06/20 04:39:58;;;;;;;13.93;2.08;;;25.10;64.90;;;;;;5028843;28;20033;-69
2021/06/20 04:42:32;;;;;;;5.05;2.17;;;25.10;65.00;;;;;;5028800;28;20056;-69
2021/06/20 04:44:58;;;;;;;6.35;2.33;;;24.90;65.30;;;;;;5028809;28;20557;-69
2021/06/20 04:47:26;;;;;;;4.38;1.90;;;24.80;65.80;;;;;;5028275;28;20448;-67
2021/06/20 04:49:52;;;;;;;2.75;2.05;;;25.00;65.40;;;;;;5026503;28;20148;-68
2021/06/20 04:52:18;;;;;;;6.65;1.70;;;25.00;65.70;;;;;;5027666;28;20033;-67
2021/06/20 04:54:50;;;;;;;5.80;2.10;;;25.10;65.50;;;;;;5027637;28;20037;-68
2021/06/20 04:57:27;;;;;;;3.88;2.47;;;25.20;65.30;;;;;;5027548;28;20037;-67
2021/06/20 04:59:55;;;;;;;5.65;2.13;;;25.30;65.20;;;;;;5027486;28;20607;-68
2021/06/20 05:02:21;;;;;;;3.83;1.85;;;25.20;65.20;;;;;;5027328;28;20038;-68
2021/06/20 05:04:48;;;;;;;2.83;1.65;;;25.30;65.10;;;;;;5026379;28;20033;-68
2021/06/20 05:07:15;;;;;;;4.38;2.33;;;25.30;64.90;;;;;;5026431;28;20403;-68
2021/06/20 05:09:41;;;;;;;2.75;1.73;;;25.30;64.90;;;;;;5027488;28;20038;-67
2021/06/20 05:12:08;;;;;;;3.15;1.83;;;25.20;65.40;;;;;;5027408;28;20103;-67
2021/06/20 05:14:38;;;;;;;5.18;1.85;;;25.20;65.60;;;;;;5027267;28;20106;-68
2021/06/20 05:17:04;;;;;;;3.03;1.83;;;25.40;65.40;;;;;;5025364;28;20037;-68
2021/06/20 05:19:30;;;;;;;3.95;1.70;;;25.50;65.70;;;;;;5027192;28;20443;-68
2021/06/20 05:21:55;;;;;;;2.88;1.83;;;25.70;65.40;;;;;;5025826;28;20502;-68
2021/06/20 05:24:22;;;;;;;8.60;2.10;;;25.90;64.80;;;;;;5027201;28;20506;-69
2021/06/20 05:26:48;;;;;;;10.45;2.35;;;25.90;63.90;;;;;;5027106;28;20410;-69
2021/06/20 05:29:13;;;;;;;4.93;1.88;;;25.90;64.20;;;;;;5024996;28;20037;-67
2021/06/20 05:31:39;;;;;;;11.00;2.08;;;25.90;64.10;;;;;;5026600;28;20502;-67
2021/06/20 05:34:05;;;;;;;3.75;2.17;;;26.00;64.00;;;;;;5026741;28;20038;-67
2021/06/20 05:36:31;;;;;;;3.78;2.35;;;26.00;62.80;;;;;;5026365;28;20041;-68
2021/06/20 05:38:56;;;;;;;5.72;2.30;;;25.80;63.70;;;;;;5026681;28;20089;-68
2021/06/20 05:41:22;;;;;;;3.33;2.35;;;25.80;64.00;;;;;;5027142;28;20096;-68
2021/06/20 05:43:48;;;;;;;3.50;2.05;;;26.20;63.60;;;;;;5027437;28;20072;-68
2021/06/20 05:46:14;;;;;;;6.05;2.20;;;26.60;62.70;;;;;;5027073;28;20064;-68
2021/06/20 05:48:39;;;;;;;3.38;1.98;;;27.50;60.00;;;;;;5027267;28;20037;-68
2021/06/20 05:51:06;;;;;;;3.85;2.10;;;28.40;58.20;;;;;;5027146;28;20502;-68
2021/06/20 05:53:31;;;;;;;2.28;1.50;;;29.10;55.70;;;;;;5026978;28;20065;-68
2021/06/20 05:55:57;;;;;;;3.08;1.77;;;29.80;54.30;;;;;;5026858;28;20478;-68
2021/06/20 05:58:23;;;;;;;3.42;2.05;;;30.90;51.00;;;;;;5025686;28;20095;-68
2021/06/20 06:00:48;;;;;;;2.67;1.77;;;32.40;47.30;;;;;;5027216;28;20030;-68
2021/06/20 06:03:14;;;;;;;2.45;1.50;;;33.30;44.80;;;;;;5027111;28;20529;-69
2021/06/20 06:05:40;;;;;;;4.63;2.28;;;34.10;41.70;;;;;;5026840;28;20033;-69
2021/06/20 06:08:05;;;;;;;4.45;1.50;;;34.50;39.80;;;;;;5027014;28;20930;-69
2021/06/20 06:10:31;;;;;;;3.75;2.08;;;35.20;38.20;;;;;;5026779;28;20810;-68
2021/06/20 06:13:01;;;;;;;4.55;1.75;;;35.70;37.60;;;;;;5027087;28;20041;-69
2021/06/20 06:15:27;;;;;;;3.63;1.60;;;35.60;37.00;;;;;;5027232;28;20073;-69
2021/06/20 06:17:53;;;;;;;7.55;1.52;;;35.50;36.30;;;;;;5025912;28;20048;-68
2021/06/20 06:20:20;;;;;;;3.50;1.65;;;35.50;36.40;;;;;;5027184;28;20038;-69
2021/06/20 06:22:46;;;;;;;4.57;1.95;;;34.80;37.60;;;;;;5027138;28;20038;-69
2021/06/20 06:25:13;;;;;;;2.10;1.38;;;35.30;37.90;;;;;;5024927;28;20040;-69
2021/06/20 06:27:40;;;;;;;2.40;1.17;;;35.70;36.30;;;;;;5025621;28;20712;-69
2021/06/20 06:30:09;;;;;;;1.83;1.10;;;36.30;35.50;;;;;;5027026;28;20138;-68
2021/06/20 06:32:35;;;;;;;6.55;1.17;;;36.50;34.00;;;;;;5027216;28;20041;-69
2021/06/20 06:35:01;;;;;;;7.70;1.40;;;36.60;34.30;;;;;;5026822;28;20124;-68
2021/06/20 06:37:27;;;;;;;2.40;1.27;;;36.40;34.30;;;;;;5027395;28;20228;-69
2021/06/20 06:39:52;;;;;;;2.50;1.08;;;37.00;33.80;;;;;;5027113;28;20502;-69
2021/06/20 06:42:18;;;;;;;2.80;1.00;;;37.20;31.70;;;;;;5029285;28;20045;-69
2021/06/20 06:44:44;;;;;;;2.55;0.90;;;36.70;32.80;;;;;;5029616;28;20037;-69
2021/06/20 06:47:09;;;;;;;2.45;1.00;;;36.70;32.50;;;;;;5030272;28;20033;-68
2021/06/20 06:49:35;;;;;;;1.92;1.20;;;36.90;32.70;;;;;;5030111;28;20041;-69
2021/06/20 06:52:01;;;;;;;3.30;1.15;;;36.50;32.90;;;;;;5028970;28;20049;-69
2021/06/20 06:54:26;;;;;;;7.55;1.40;;;36.40;33.20;;;;;;5029788;28;20041;-69
2021/06/20 06:56:52;;;;;;;2.13;1.00;;;35.30;35.40;;;;;;5029686;28;20037;-69
2021/06/20 06:59:18;;;;;;;3.67;1.65;;;34.30;36.60;;;;;;5029909;28;20103;-68
2021/06/20 07:01:44;;;;;;;1.38;0.95;;;34.50;36.90;;;;;;5029677;28;20121;-68
2021/06/20 07:04:09;;;;;;;2.85;1.45;;;34.40;38.20;;;;;;5029814;28;20148;-69
2021/06/20 07:06:35;;;;;;;1.70;1.13;;;34.90;37.40;;;;;;5029830;28;20482;-69
2021/06/20 07:09:02;;;;;;;2.47;1.30;;;35.30;37.40;;;;;;5027176;28;20046;-68
2021/06/20 07:11:27;;;;;;;3.08;1.55;;;35.80;35.90;;;;;;5028210;28;20043;-68
2021/06/20 07:13:53;;;;;;;5.47;1.15;;;35.50;35.30;;;;;;5029654;28;20034;-68
2021/06/20 07:16:19;;;;;;;3.60;1.27;;;35.30;35.50;;;;;;5029848;28;20304;-68
2021/06/20 07:18:45;;;;;;;3.05;0.95;;;35.20;36.80;;;;;;5029748;28;20030;-69
2021/06/20 07:21:11;;;;;;;1.88;1.27;;;35.70;35.50;;;;;;5029494;28;20049;-69
2021/06/20 07:23:37;;;;;;;3.38;1.40;;;36.10;35.00;;;;;;5029597;28;20045;-69
2021/06/20 07:26:02;;;;;;;2.85;1.20;;;36.40;34.30;;;;;;5029952;28;20036;-69
2021/06/20 07:28:28;;;;;;;3.15;1.00;;;36.60;34.40;;;;;;5029849;28;20125;-69
2021/06/20 07:30:54;;;;;;;3.25;1.20;;;36.20;34.90;;;;;;5029713;28;20041;-68
2021/06/20 07:33:22;;;;;;;3.35;1.20;;;36.30;35.00;;;;;;5029468;28;20111;-68
2021/06/20 07:35:52;;;;;;;5.28;1.73;;;36.90;34.30;;;;;;5025681;28;20440;-70
2021/06/20 07:38:21;;;;;;;2.13;1.17;;;36.80;34.00;;;;;;5028068;28;20055;-69
2021/06/20 07:40:47;;;;;;;5.82;1.00;;;37.10;32.80;;;;;;5029550;28;20037;-68
2021/06/20 07:43:13;;;;;;;2.63;1.33;;;36.90;32.70;;;;;;5027850;28;20615;-68
2021/06/20 07:45:39;;;;;;;5.65;1.60;;;36.60;34.20;;;;;;5028799;28;20044;-68
2021/06/20 07:48:10;;;;;;;5.30;1.60;;;36.90;33.40;;;;;;5027380;28;20040;-68
2021/06/20 07:50:37;;;;;;;2.08;1.15;;;37.10;34.00;;;;;;5027001;28;20592;-69
2021/06/20 07:53:03;;;;;;;4.25;1.10;;;36.70;33.30;;;;;;5025818;28;20030;-68
2021/06/20 07:55:29;;;;;;;3.88;1.60;;;36.40;33.90;;;;;;5028307;28;20117;-68
2021/06/20 07:57:55;;;;;;;3.80;1.30;;;36.00;34.10;;;;;;5028904;28;20037;-68
2021/06/20 08:00:21;;;;;;;3.10;1.45;;;36.00;35.00;;;;;;5028750;28;20060;-69
2021/06/20 08:02:47;;;;;;;2.92;1.05;;;35.90;34.50;;;;;;5028661;28;20384;-69
2021/06/20 08:05:14;;;;;;;4.47;1.88;;;35.80;35.30;;;;;;5028699;28;20025;-69
2021/06/20 08:07:40;;;;;;;2.70;1.58;;;36.10;34.30;;;;;;5028532;28;20127;-67
2021/06/20 08:10:07;;;;;;;2.42;1.10;;;36.20;34.70;;;;;;5028696;28;20065;-69
2021/06/20 08:12:32;;;;;;;4.68;1.60;;;36.70;33.10;;;;;;5027212;28;20041;-69
2021/06/20 08:14:59;;;;;;;4.28;1.30;;;36.80;32.60;;;;;;5028797;28;20040;-69
2021/06/20 08:17:25;;;;;;;1.85;1.38;;;36.70;32.60;;;;;;5028187;28;20140;-68
2021/06/20 08:19:50;;;;;;;2.42;1.30;;;36.80;32.90;;;;;;5028411;28;20135;-69
2021/06/20 08:22:18;;;;;;;4.18;1.00;;;36.80;32.60;;;;;;5028346;28;20076;-69
2021/06/20 08:24:44;;;;;;;2.78;1.40;;;36.60;32.50;;;;;;5028412;28;20551;-69
2021/06/20 08:27:09;;;;;;;2.72;1.15;;;36.20;33.30;;;;;;5028203;28;20052;-69
2021/06/20 08:29:35;;;;;;;2.22;1.13;;;36.20;34.00;;;;;;5025552;28;20399;-69
2021/06/20 08:32:01;;;;;;;2.42;1.30;;;36.70;33.20;;;;;;5028183;28;20041;-69
2021/06/20 08:34:29;;;;;;;3.53;1.02;;;37.10;32.60;;;;;;5026787;28;20037;-70
2021/06/20 08:36:56;;;;;;;1.48;0.90;;;37.50;30.90;;;;;;5027966;28;20146;-69
2021/06/20 08:39:22;;;;;;;2.17;1.38;;;37.90;30.80;;;;;;5027908;28;20033;-70
2021/06/20 08:41:47;;;;;;;2.67;1.13;;;38.00;30.20;;;;;;5027880;28;20053;-69
2021/06/20 08:44:33;;;;;;;2.17;1.05;;;38.30;30.40;;;;;;5026980;28;20033;-70
2021/06/20 08:47:01;;;;;;;2.92;1.30;;;38.00;30.40;;;;;;5027681;28;20783;-68
2021/06/20 08:49:28;;;;;;;2.80;1.23;;;37.60;31.40;;;;;;5027946;28;20079;-71
2021/06/20 08:51:56;;;;;;;2.53;1.33;;;38.00;30.00;;;;;;5027930;28;20049;-70
2021/06/20 08:54:22;;;;;;;4.95;1.33;;;37.80;31.10;;;;;;5028801;28;20018;-70
2021/06/20 08:56:50;;;;;;;2.45;1.58;;;37.40;30.80;;;;;;5028748;28;20033;-70
2021/06/20 08:59:18;;;;;;;3.05;1.40;;;37.40;31.80;;;;;;5028265;28;20040;-70
2021/06/20 09:01:43;;;;;;;4.20;1.85;;;37.90;31.90;;;;;;5028536;28;20036;-70
2021/06/20 09:04:10;;;;;;;4.03;1.63;;;38.10;31.80;;;;;;5028666;28;20413;-70
2021/06/20 09:06:36;;;;;;;2.25;1.42;;;38.50;31.50;;;;;;5028656;28;20049;-70
2021/06/20 09:09:04;;;;;;;6.22;2.00;;;38.60;30.70;;;;;;5028626;28;20449;-70
2021/06/20 09:11:41;;;;;;;1.90;1.13;;;38.70;31.30;;;;;;5028419;28;20022;-70
2021/06/20 09:14:08;;;;;;;1.88;1.42;;;39.10;31.10;;;;;;5028671;28;20029;-70
2021/06/20 09:16:44;;;;;;;6.00;1.35;;;38.90;31.40;;;;;;5028500;28;20112;-70
2021/06/20 09:19:09;;;;;;;4.07;1.50;;;39.00;31.40;;;;;;5028480;28;20025;-70
2021/06/20 09:21:35;;;;;;;4.10;1.73;;;39.20;31.10;;;;;;5028250;28;20055;-70
2021/06/20 09:24:02;;;;;;;3.88;1.50;;;39.70;30.70;;;;;;5028400;28;20735;-70
2021/06/20 09:26:41;;;;;;;5.07;1.42;;;39.70;30.40;;;;;;5028451;28;20053;-69
2021/06/20 09:29:08;;;;;;;2.00;1.40;;;39.30;30.60;;;;;;5028460;28;20117;-70
2021/06/20 09:31:44;;;;;;;3.08;1.83;;;39.30;29.60;;;;;;5028227;28;20117;-71
2021/06/20 09:34:10;;;;;;;6.30;1.50;;;39.00;31.20;;;;;;5028354;28;20041;-70
2021/06/20 09:36:36;;;;;;;5.05;1.35;;;39.30;30.80;;;;;;5027947;28;20045;-70
2021/06/20 09:39:05;;;;;;;3.55;1.63;;;39.50;30.20;;;;;;5027410;28;20045;-70
2021/06/20 09:41:30;;;;;;;5.30;1.70;;;39.70;29.80;;;;;;5027208;28;20065;-69
2021/06/20 09:43:57;;;;;;;4.05;1.50;;;39.50;30.80;;;;;;5027143;28;20097;-69
2021/06/20 09:46:23;;;;;;;3.30;1.70;;;39.40;30.80;;;;;;5027563;28;20632;-68
2021/06/20 09:48:49;;;;;;;4.05;1.80;;;39.10;31.00;;;;;;5027426;28;20437;-69
2021/06/20 09:51:18;;;;;;;4.22;1.20;;;39.20;30.60;;;;;;5027207;28;20029;-69
2021/06/20 09:53:47;;;;;;;5.63;1.48;;;39.10;30.10;;;;;;5025955;28;20029;-69
2021/06/20 09:56:30;;;;;;;3.42;1.33;;;38.40;30.90;;;;;;5027159;28;20041;-69
2021/06/20 09:59:05;;;;;;;2.20;1.17;;;37.50;31.80;;;;;;5028133;28;20112;-69
2021/06/20 10:01:38;;;;;;;4.45;1.85;;;36.80;32.10;;;;;;5027946;28;20175;-70
2021/06/20 10:04:03;;;;;;;2.38;1.70;;;36.10;33.30;;;;;;5028016;28;20104;-70
2021/06/20 10:06:29;;;;;;;4.35;1.60;;;35.80;34.70;;;;;;5026679;28;20179;-69
2021/06/20 10:08:55;;;;;;;5.72;1.73;;;35.60;35.70;;;;;;5027781;28;20109;-69
2021/06/20 10:11:21;;;;;;;3.22;1.25;;;35.50;35.50;;;;;;5025743;28;20073;-68
2021/06/20 10:13:47;;;;;;;2.58;1.52;;;35.40;35.30;;;;;;5031807;28;20060;-69
2021/06/20 10:16:20;;;;;;;2.33;1.30;;;35.20;35.50;;;;;;5031778;28;20042;-68
2021/06/20 10:19:04;;;;;;;3.53;1.23;;;35.30;35.90;;;;;;5031702;28;20033;-69
2021/06/20 10:21:38;;;;;;;2.83;1.27;;;35.30;36.20;;;;;;5031415;28;20017;-68
2021/06/20 10:24:09;;;;;;;4.80;1.70;;;34.90;36.20;;;;;;5031869;28;20051;-69
2021/06/20 10:26:36;;;;;;;5.47;1.70;;;33.90;37.40;;;;;;5031512;28;20054;-69
2021/06/20 10:29:14;;;;;;;3.47;1.60;;;33.50;38.70;;;;;;5031427;28;20116;-69
2021/06/20 10:31:39;;;;;;;2.50;1.52;;;33.00;39.00;;;;;;5031292;28;20402;-69
2021/06/20 10:34:19;;;;;;;2.92;1.40;;;32.90;40.50;;;;;;5031450;28;20030;-69
2021/06/20 10:36:50;;;;;;;2.63;1.33;;;33.20;40.70;;;;;;5029786;28;20042;-69
2021/06/20 10:39:16;;;;;;;2.70;1.30;;;33.40;40.30;;;;;;5031343;28;20033;-69
2021/06/20 10:41:42;;;;;;;2.45;1.77;;;33.50;40.00;;;;;;5031139;28;20553;-69
2021/06/20 10:44:08;;;;;;;5.25;1.33;;;33.80;40.30;;;;;;5031120;28;20144;-69
2021/06/20 10:46:35;;;;;;;5.05;1.75;;;33.90;39.30;;;;;;5031042;28;20029;-69
2021/06/20 10:49:13;;;;;;;1.60;1.05;;;33.90;39.30;;;;;;5031212;28;20045;-69
2021/06/20 10:51:38;;;;;;;5.63;1.50;;;34.10;39.60;;;;;;5030988;28;20021;-67
2021/06/20 10:54:04;;;;;;;3.15;1.73;;;34.20;39.20;;;;;;5030898;28;20029;-69
2021/06/20 10:56:31;;;;;;;3.30;1.63;;;33.90;38.90;;;;;;5030742;28;20041;-69
2021/06/20 10:58:56;;;;;;;3.25;1.80;;;33.80;40.00;;;;;;5031020;28;20088;-68
2021/06/20 11:01:26;;;;;;;3.42;1.42;;;33.80;40.50;;;;;;5030752;28;20433;-70
2021/06/20 11:03:52;;;;;;;6.22;1.77;;;34.00;39.70;;;;;;5030706;28;20440;-69
2021/06/20 11:06:20;;;;;;;7.25;2.08;;;34.00;39.40;;;;;;5030625;28;20498;-69
2021/06/20 11:08:57;;;;;;;2.85;1.63;;;33.80;39.30;;;;;;5030674;28;20040;-69
2021/06/20 11:11:25;;;;;;;3.17;1.77;;;33.30;40.10;;;;;;5029091;28;20022;-70
2021/06/20 11:13:57;;;;;;;2.38;1.25;;;33.10;40.80;;;;;;5030578;28;20103;-69
2021/06/20 11:16:30;;;;;;;2.22;1.67;;;33.20;41.00;;;;;;5030524;28;20037;-69
2021/06/20 11:19:07;;;;;;;2.90;1.80;;;33.00;40.40;;;;;;5030536;28;20025;-69
2021/06/20 11:21:35;;;;;;;2.45;1.50;;;32.60;41.70;;;;;;5028948;28;20748;-69
2021/06/20 11:24:01;;;;;;;3.70;1.90;;;32.50;42.30;;;;;;5028750;28;20124;-70
2021/06/20 11:26:26;;;;;;;2.80;1.83;;;32.30;41.90;;;;;;5030400;28;20112;-70
2021/06/20 11:29:04;;;;;;;3.40;1.95;;;32.00;42.10;;;;;;5030283;28;20397;-69
2021/06/20 11:31:30;;;;;;;7.55;2.38;;;31.70;42.30;;;;;;5029994;28;20022;-69
2021/06/20 11:33:57;;;;;;;8.98;1.77;;;31.70;43.70;;;;;;5030129;28;20521;-70
2021/06/20 11:36:25;;;;;;;3.20;2.20;;;31.80;42.90;;;;;;5028870;28;20030;-69
2021/06/20 11:38:50;;;;;;;2.80;1.90;;;31.90;43.60;;;;;;5030025;28;20076;-69
2021/06/20 11:41:19;;;;;;;5.90;1.98;;;32.00;42.60;;;;;;5029959;28;20060;-69
2021/06/20 11:43:59;;;;;;;3.53;1.48;;;32.30;42.60;;;;;;5028668;28;20684;-69
2021/06/20 11:46:27;;;;;;;3.15;1.60;;;32.60;41.90;;;;;;5030066;28;20060;-70
2021/06/20 11:48:54;;;;;;;2.17;1.40;;;32.80;42.10;;;;;;5029890;28;20029;-69
2021/06/20 11:51:39;;;;;;;3.92;1.90;;;33.10;40.80;;;;;;5029778;28;20600;-69
2021/06/20 11:54:07;;;;;;;5.30;1.83;;;33.30;41.60;;;;;;5029917;28;20060;-68
2021/06/20 11:56:33;;;;;;;1.92;1.25;;;33.40;40.40;;;;;;5029750;28;20372;-69
2021/06/20 11:58:59;;;;;;;4.32;1.83;;;33.50;40.80;;;;;;5029915;28;20509;-69
2021/06/20 12:01:37;;;;;;;5.28;1.55;;;33.40;40.40;;;;;;5029570;28;20072;-68
2021/06/20 12:04:03;;;;;;;2.80;1.60;;;33.10;40.10;;;;;;5028542;28;20506;-68
2021/06/20 12:06:30;;;;;;;2.83;1.63;;;32.80;41.80;;;;;;5029733;28;20075;-68
2021/06/20 12:08:57;;;;;;;2.05;1.70;;;32.80;42.40;;;;;;5029551;28;20486;-69
2021/06/20 12:11:33;;;;;;;3.45;1.52;;;33.10;42.00;;;;;;5029432;28;20036;-69
2021/06/20 12:13:58;;;;;;;3.53;1.70;;;33.30;42.20;;;;;;5029585;28;20087;-68
2021/06/20 12:16:24;;;;;;;2.88;2.15;;;33.50;41.80;;;;;;5029509;28;20045;-69
2021/06/20 12:18:50;;;;;;;2.20;1.80;;;33.60;42.20;;;;;;5029461;28;20053;-69
2021/06/20 12:21:36;;;;;;;4.22;1.83;;;33.80;41.90;;;;;;5028010;28;20171;-69
2021/06/20 12:24:02;;;;;;;10.65;2.42;;;34.20;40.70;;;;;;5029091;28;20037;-68
2021/06/20 12:26:30;;;;;;;5.13;1.92;;;34.40;40.30;;;;;;5029231;28;20037;-68
2021/06/20 12:28:57;;;;;;;3.00;1.50;;;34.60;39.60;;;;;;5029223;28;20048;-68
2021/06/20 12:31:24;;;;;;;2.65;1.48;;;34.70;40.20;;;;;;5028978;28;20030;-69
2021/06/20 12:34:09;;;;;;;3.08;1.92;;;34.80;39.60;;;;;;5028720;28;20469;-69
2021/06/20 12:36:35;;;;;;;2.30;1.40;;;34.80;39.20;;;;;;5028940;28;20446;-69
2021/06/20 12:39:03;;;;;;;4.07;1.50;;;34.80;38.40;;;;;;5029072;28;20044;-68
2021/06/20 12:41:29;;;;;;;1.83;1.40;;;34.60;39.00;;;;;;5028690;28;20572;-69
2021/06/20 12:44:07;;;;;;;8.40;2.10;;;34.40;40.20;;;;;;5028785;28;20025;-68
2021/06/20 12:46:40;;;;;;;2.97;1.42;;;34.20;39.90;;;;;;5028717;28;20520;-71